Time;durP1;ratioP1;P1;durP2;ratioP2;P2;SDS_P1;SDS_P2;PMS_P1;PMS_P2;Temp;Humidity;BMP_temperature;BMP_pressure;BME280_temperature;BME280_humidity;BME280_pressure;Samples;Min_cycle;Max_cycle;Signal;HPM_P1;HPM_P2
2023/03/03 00:02:26;;;;;;;17.53;5.90;;;;;;;-0.78;100.00;101835.44;6002105;28;20321;-75
2023/03/03 00:05:21;;;;;;;20.27;5.77;;;;;;;-0.58;100.00;101846.09;6002653;28;20478;-73
2023/03/03 00:08:17;;;;;;;15.53;4.67;;;;;;;-0.52;100.00;101842.47;6001965;28;20049;-73
2023/03/03 00:11:13;;;;;;;27.67;6.15;;;;;;;-0.86;100.00;101824.41;6002344;28;20041;-72
2023/03/03 00:14:23;;;;;;;19.93;6.17;;;;;;;-0.76;100.00;101818.03;6000775;28;20035;-73
2023/03/03 00:17:27;;;;;;;20.55;5.85;;;;;;;-0.76;100.00;101834.47;6001204;28;20110;-73
2023/03/03 00:20:38;;;;;;;18.02;5.32;;;;;;;-0.89;100.00;101829.69;6002626;28;20039;-74
2023/03/03 00:23:36;;;;;;;22.63;6.15;;;;;;;-0.95;100.00;101854.16;5990835;28;20063;-73
2023/03/03 00:26:38;;;;;;;26.75;8.32;;;;;;;-0.96;100.00;101877.63;6002434;28;20082;-72
2023/03/03 00:29:54;;;;;;;23.33;6.88;;;;;;;-0.95;100.00;101876.75;6002299;28;20134;-72
2023/03/03 00:32:49;;;;;;;20.05;5.82;;;;;;;-0.99;100.00;101878.59;5997711;28;20039;-74
2023/03/03 00:35:44;;;;;;;21.50;6.85;;;;;;;-1.11;100.00;101854.69;6002583;28;20057;-72
2023/03/03 00:38:40;;;;;;;24.97;6.40;;;;;;;-1.11;100.00;101852.91;6002053;28;20038;-74
2023/03/03 00:41:36;;;;;;;22.43;7.57;;;;;;;-1.16;100.00;101848.72;6002206;28;20042;-74
2023/03/03 00:44:46;;;;;;;36.22;12.60;;;;;;;-1.00;100.00;101873.41;5977092;28;20051;-73
2023/03/03 00:47:42;;;;;;;25.92;7.38;;;;;;;-0.99;100.00;101873.38;6001202;28;20515;-74
2023/03/03 00:50:38;;;;;;;25.08;7.88;;;;;;;-1.14;100.00;101858.19;6002150;28;20054;-73
2023/03/03 00:53:34;;;;;;;36.60;12.85;;;;;;;-1.00;100.00;101870.81;6001664;28;20069;-74
2023/03/03 00:56:29;;;;;;;30.53;8.80;;;;;;;-0.99;100.00;101873.38;6002332;28;20105;-73
2023/03/03 00:59:24;;;;;;;17.40;5.60;;;;;;;-0.97;100.00;101858.56;6001555;28;20094;-73
2023/03/03 01:02:20;;;;;;;41.30;7.33;;;;;;;-0.95;100.00;101842.91;6005160;28;20120;-73
2023/03/03 01:05:17;;;;;;;26.90;7.30;;;;;;;-0.94;100.00;101836.78;6003125;28;20030;-74
2023/03/03 01:08:12;;;;;;;21.33;7.82;;;;;;;-0.88;100.00;101849.63;6006386;28;20043;-72
2023/03/03 01:11:11;;;;;;;23.98;6.78;;;;;;;-0.93;100.00;101851.53;6006672;28;20442;-74
2023/03/03 01:14:06;;;;;;;30.38;7.47;;;;;;;-0.98;100.00;101856.84;6005389;28;20039;-74
2023/03/03 01:17:02;;;;;;;26.80;8.60;;;;;;;-1.08;100.00;101836.34;6006123;28;20438;-73
2023/03/03 01:19:57;;;;;;;30.20;8.25;;;;;;;-1.01;100.00;101854.38;6006195;28;20278;-73
2023/03/03 01:22:53;;;;;;;27.10;6.07;;;;;;;-1.12;100.00;101851.22;6005672;28;20066;-73
2023/03/03 01:25:48;;;;;;;23.40;7.03;;;;;;;-1.19;100.00;101849.66;6006144;28;20031;-73
2023/03/03 01:28:43;;;;;;;24.33;7.33;;;;;;;-1.09;100.00;101866.75;6005774;28;20034;-74
2023/03/03 01:31:39;;;;;;;27.07;6.43;;;;;;;-0.95;100.00;101843.75;6005966;28;20031;-72
2023/03/03 01:34:34;;;;;;;22.55;6.38;;;;;;;-1.01;100.00;101853.50;6005269;28;20041;-73
2023/03/03 01:37:29;;;;;;;26.13;7.97;;;;;;;-1.09;100.00;101839.88;6005721;28;20039;-74
2023/03/03 01:40:27;;;;;;;16.97;5.30;;;;;;;-1.21;100.00;101844.53;6006043;28;20034;-73
2023/03/03 01:43:25;;;;;;;22.38;5.82;;;;;;;-1.29;100.00;101838.69;6004929;28;20042;-73
2023/03/03 01:46:23;;;;;;;21.35;6.47;;;;;;;-1.15;100.00;101861.72;6005456;28;20039;-73
2023/03/03 01:49:26;;;;;;;22.25;6.05;;;;;;;-1.23;100.00;101841.13;6005367;28;20601;-74
2023/03/03 01:52:30;;;;;;;18.73;5.72;;;;;;;-0.98;100.00;101863.81;6005119;28;20490;-73
2023/03/03 01:55:31;;;;;;;25.27;6.95;;;;;;;-0.96;100.00;101860.28;6003999;28;20050;-73
2023/03/03 01:58:35;;;;;;;24.50;6.95;;;;;;;-1.10;100.00;101861.56;6004218;28;20406;-73
2023/03/03 02:01:31;;;;;;;22.95;6.07;;;;;;;-1.12;100.00;101856.41;6005055;28;20038;-74
2023/03/03 02:04:27;;;;;;;23.20;7.30;;;;;;;-1.06;100.00;101860.59;6004910;28;20027;-73
2023/03/03 02:07:24;;;;;;;25.88;7.50;;;;;;;-1.16;100.00;101838.31;6005852;28;20403;-73
2023/03/03 02:10:21;;;;;;;28.65;5.80;;;;;;;-0.94;100.00;101831.59;6005068;28;20039;-74
2023/03/03 02:13:16;;;;;;;25.27;7.18;;;;;;;-0.92;100.00;101845.41;6002234;28;20489;-73
2023/03/03 02:16:11;;;;;;;29.43;5.93;;;;;;;-1.02;100.00;101830.97;6004061;28;20043;-73
2023/03/03 02:19:14;;;;;;;27.93;6.67;;;;;;;-1.09;100.00;101813.84;6005199;28;20042;-73
2023/03/03 02:22:10;;;;;;;24.48;6.85;;;;;;;-1.02;100.00;101837.03;5993779;28;20087;-74
2023/03/03 02:25:10;;;;;;;18.00;6.22;;;;;;;-1.06;100.00;101818.97;5996319;28;20072;-72
2023/03/03 02:28:05;;;;;;;20.17;6.05;;;;;;;-0.92;100.00;101816.78;6001272;28;20035;-73
2023/03/03 02:31:02;;;;;;;22.67;6.45;;;;;;;-0.78;100.00;101830.22;6004099;28;20549;-74
2023/03/03 02:33:57;;;;;;;20.48;6.63;;;;;;;-0.80;100.00;101838.09;6004225;28;20117;-74
2023/03/03 02:36:52;;;;;;;19.00;6.35;;;;;;;-0.90;100.00;101826.28;6004561;28;20064;-74
2023/03/03 02:39:48;;;;;;;19.53;5.63;;;;;;;-0.80;100.00;101826.81;6004342;28;20056;-73
2023/03/03 02:42:44;;;;;;;13.97;4.97;;;;;;;-0.85;100.00;101821.78;6003852;28;20114;-74
2023/03/03 02:45:43;;;;;;;22.33;6.07;;;;;;;-0.88;100.00;101810.59;6004135;28;20774;-74
2023/03/03 02:48:38;;;;;;;20.15;5.60;;;;;;;-0.92;100.00;101798.56;6004221;28;20034;-73
2023/03/03 02:51:35;;;;;;;23.20;6.03;;;;;;;-0.81;100.00;101814.69;6003474;28;20422;-74
2023/03/03 02:54:30;;;;;;;20.25;6.50;;;;;;;-0.97;100.00;101803.03;6003572;28;20031;-72
2023/03/03 02:57:26;;;;;;;16.10;5.32;;;;;;;-0.97;100.00;101790.03;6003749;28;20505;-72
2023/03/03 03:00:21;;;;;;;24.20;6.63;;;;;;;-0.94;100.00;101803.81;6003355;28;20100;-73
2023/03/03 03:03:16;;;;;;;17.03;6.70;;;;;;;-0.99;100.00;101807.47;6003450;28;20113;-72
2023/03/03 03:06:12;;;;;;;20.10;5.63;;;;;;;-0.90;100.00;101801.97;6003774;28;20038;-74
2023/03/03 03:09:08;;;;;;;21.05;6.47;;;;;;;-0.83;100.00;101817.38;6003503;28;20030;-73
2023/03/03 03:12:04;;;;;;;19.42;5.95;;;;;;;-0.83;100.00;101800.88;6002816;28;20050;-72
2023/03/03 03:14:59;;;;;;;23.02;5.93;;;;;;;-0.76;100.00;101813.66;6003565;28;20479;-72
2023/03/03 03:17:54;;;;;;;15.17;4.60;;;;;;;-0.78;100.00;101828.47;6003841;28;20097;-73
2023/03/03 03:20:50;;;;;;;20.15;6.85;;;;;;;-0.75;100.00;101827.53;6003186;28;20445;-73
2023/03/03 03:23:45;;;;;;;21.77;5.37;;;;;;;-0.75;100.00;101832.75;6002716;28;20027;-72
2023/03/03 03:26:40;;;;;;;18.87;5.33;;;;;;;-0.73;100.00;101823.13;6003475;28;20544;-72
2023/03/03 03:29:36;;;;;;;23.60;5.30;;;;;;;-0.71;100.00;101836.97;6003351;28;20042;-72
2023/03/03 03:32:31;;;;;;;20.43;5.83;;;;;;;-0.79;100.00;101818.94;6002179;28;20063;-72
2023/03/03 03:35:27;;;;;;;23.63;7.23;;;;;;;-0.73;100.00;101833.53;6003100;28;20403;-73
2023/03/03 03:38:23;;;;;;;22.23;6.55;;;;;;;-0.74;100.00;101829.25;6003600;28;20023;-74
2023/03/03 03:41:18;;;;;;;21.98;6.55;;;;;;;-0.87;100.00;101813.13;6003079;28;20482;-72
2023/03/03 03:44:13;;;;;;;25.40;7.20;;;;;;;-0.87;100.00;101815.72;6002193;28;20039;-73
2023/03/03 03:47:09;;;;;;;20.23;5.43;;;;;;;-0.83;100.00;101832.13;6002934;28;20038;-73
2023/03/03 03:50:04;;;;;;;21.30;7.00;;;;;;;-0.68;100.00;101829.06;6001797;28;20078;-73
2023/03/03 03:53:00;;;;;;;17.15;5.80;;;;;;;-0.62;100.00;101837.53;6002546;28;20390;-73
2023/03/03 03:55:55;;;;;;;15.90;5.18;;;;;;;-0.70;100.00;101838.66;6002467;28;20399;-73
2023/03/03 03:58:50;;;;;;;17.90;5.85;;;;;;;-0.84;100.00;101825.19;6002414;28;20394;-72
2023/03/03 04:01:47;;;;;;;22.13;7.07;;;;;;;-0.71;100.00;101840.41;6002460;28;20042;-72
2023/03/03 04:04:42;;;;;;;19.90;6.53;;;;;;;-0.70;100.00;101839.50;6002375;28;20541;-72
2023/03/03 04:07:37;;;;;;;21.93;6.27;;;;;;;-0.71;100.00;101842.19;6002830;28;20066;-73
2023/03/03 04:10:33;;;;;;;20.87;6.17;;;;;;;-0.71;100.00;101831.75;6002546;28;20042;-73
2023/03/03 04:13:30;;;;;;;23.08;6.88;;;;;;;-0.58;100.00;101853.91;6002123;28;20070;-73
2023/03/03 04:16:26;;;;;;;18.42;6.05;;;;;;;-0.51;100.00;101845.00;6002763;28;20487;-74
2023/03/03 04:19:21;;;;;;;16.47;5.13;;;;;;;-0.55;100.00;101851.22;6002208;28;20039;-72
2023/03/03 04:22:16;;;;;;;18.92;6.00;;;;;;;-0.56;100.00;101840.84;5990637;28;20131;-73
2023/03/03 04:25:14;;;;;;;18.90;6.07;;;;;;;-0.45;100.00;101838.75;6002294;28;20043;-72
2023/03/03 04:28:09;;;;;;;18.48;6.75;;;;;;;-0.50;100.00;101851.94;6002011;28;20069;-72
2023/03/03 04:31:05;;;;;;;23.30;7.53;;;;;;;-0.63;100.00;101843.66;6002063;28;20035;-72
2023/03/03 04:34:00;;;;;;;20.63;7.10;;;;;;;-0.62;100.00;101831.47;6001272;28;20618;-71
2023/03/03 04:36:55;;;;;;;25.30;8.70;;;;;;;-0.64;100.00;101835.88;6006070;28;20289;-72
2023/03/03 04:39:51;;;;;;;29.40;8.32;;;;;;;-0.64;100.00;101839.31;6006947;28;20490;-71
2023/03/03 04:42:46;;;;;;;21.10;6.30;;;;;;;-0.60;100.00;101850.50;6007044;28;20046;-74
2023/03/03 04:45:42;;;;;;;24.98;7.25;;;;;;;-0.59;100.00;101852.19;6007921;28;20070;-72
2023/03/03 04:48:37;;;;;;;29.13;8.03;;;;;;;-0.62;100.00;101852.28;6006715;28;20039;-73
2023/03/03 04:51:32;;;;;;;25.48;7.18;;;;;;;-0.71;100.00;101848.22;6007122;28;20434;-72
2023/03/03 04:54:28;;;;;;;26.20;8.30;;;;;;;-0.64;100.00;101848.88;6006048;28;20112;-72
2023/03/03 04:57:23;;;;;;;29.30;7.67;;;;;;;-0.62;100.00;101858.34;6007057;28;20041;-73
2023/03/03 05:00:19;;;;;;;25.23;7.10;;;;;;;-0.70;100.00;101855.13;6006400;28;20344;-72
2023/03/03 05:03:14;;;;;;;25.20;7.80;;;;;;;-0.61;100.00;101865.28;6006024;28;20038;-73
2023/03/03 05:06:09;;;;;;;28.43;7.90;;;;;;;-0.67;100.00;101849.84;6006598;28;20057;-74
2023/03/03 05:09:05;;;;;;;25.93;7.27;;;;;;;-0.58;100.00;101856.53;6006501;28;20042;-73
2023/03/03 05:12:00;;;;;;;26.23;8.47;;;;;;;-0.56;100.00;101840.84;6005786;28;20800;-72
2023/03/03 05:14:55;;;;;;;24.80;6.78;;;;;;;-0.52;100.00;101812.06;6006545;28;20288;-73
2023/03/03 05:17:52;;;;;;;32.63;8.03;;;;;;;-0.38;100.00;101846.31;6006491;28;20027;-72
2023/03/03 05:20:48;;;;;;;26.60;7.32;;;;;;;-0.30;100.00;101841.69;6006650;28;20042;-72
2023/03/03 05:23:43;;;;;;;24.00;7.20;;;;;;;-0.35;100.00;101837.53;5995074;28;20035;-73
2023/03/03 05:26:39;;;;;;;23.13;7.50;;;;;;;-0.28;100.00;101839.94;6005389;28;20046;-73
2023/03/03 05:29:34;;;;;;;23.83;6.50;;;;;;;-0.47;100.00;101819.72;6005744;28;20533;-74
2023/03/03 05:32:30;;;;;;;22.93;6.10;;;;;;;-0.52;100.00;101817.28;6005228;28;20045;-74
2023/03/03 05:35:25;;;;;;;19.10;5.00;;;;;;;-0.46;100.00;101804.03;6006332;28;20027;-72
2023/03/03 05:38:21;;;;;;;18.63;5.80;;;;;;;-0.46;100.00;101817.03;6005501;28;20034;-74
2023/03/03 05:41:16;;;;;;;23.02;6.88;;;;;;;-0.51;100.00;101818.94;6006015;28;20114;-72
2023/03/03 05:44:12;;;;;;;20.35;5.97;;;;;;;-0.58;100.00;101809.63;6005209;28;20486;-74
2023/03/03 05:47:07;;;;;;;27.27;6.95;;;;;;;-0.56;100.00;101828.66;6005576;28;20031;-72
2023/03/03 05:50:03;;;;;;;25.67;6.27;;;;;;;-0.57;100.00;101824.34;6005950;28;20478;-74
2023/03/03 05:52:58;;;;;;;22.90;6.45;;;;;;;-0.45;100.00;101834.38;6004392;28;20031;-72
2023/03/03 05:55:54;;;;;;;17.97;7.03;;;;;;;-0.43;100.00;101848.22;6005901;28;20042;-73
2023/03/03 05:58:49;;;;;;;17.23;5.93;;;;;;;-0.49;100.00;101839.75;6005667;28;20033;-73
2023/03/03 06:01:44;;;;;;;22.20;6.37;;;;;;;-0.40;100.00;101849.88;6004843;28;20043;-72
2023/03/03 06:04:40;;;;;;;23.93;7.53;;;;;;;-0.47;100.00;101851.84;6005068;28;20039;-72
2023/03/03 06:07:35;;;;;;;25.97;8.07;;;;;;;-0.55;100.00;101848.63;6005128;28;20039;-72
2023/03/03 06:10:30;;;;;;;24.33;6.17;;;;;;;-0.64;100.00;101856.69;6005514;28;20030;-72
2023/03/03 06:13:26;;;;;;;27.93;7.23;;;;;;;-0.54;100.00;101873.75;6004762;28;20483;-73
2023/03/03 06:16:21;;;;;;;22.02;7.30;;;;;;;-0.64;100.00;101865.38;6005030;28;20038;-73
2023/03/03 06:19:16;;;;;;;22.40;6.97;;;;;;;-0.54;100.00;101865.94;6005374;28;20130;-72
2023/03/03 06:22:12;;;;;;;26.07;7.50;;;;;;;-0.61;100.00;101867.03;5993180;28;20376;-72
2023/03/03 06:25:08;;;;;;;28.02;8.20;;;;;;;-0.58;100.00;101873.88;6004863;28;20042;-74
2023/03/03 06:28:03;;;;;;;27.75;7.85;;;;;;;-0.57;100.00;101871.22;6004986;28;20093;-74
2023/03/03 06:30:58;;;;;;;24.27;6.50;;;;;;;-0.50;100.00;101888.38;6004849;28;20039;-74
2023/03/03 06:33:53;;;;;;;25.53;7.27;;;;;;;-0.45;100.00;101896.91;6004411;28;20038;-73
2023/03/03 06:36:49;;;;;;;26.17;7.13;;;;;;;-0.39;100.00;101890.66;6004600;28;20051;-74
2023/03/03 06:39:44;;;;;;;25.50;6.87;;;;;;;-0.38;100.00;101890.59;6004977;28;20390;-73
2023/03/03 06:42:39;;;;;;;26.40;6.30;;;;;;;-0.35;100.00;101895.72;6003972;28;20019;-72
2023/03/03 06:45:35;;;;;;;32.10;7.87;;;;;;;-0.27;100.00;101896.31;6004578;28;20501;-73
2023/03/03 06:48:31;;;;;;;34.67;8.70;;;;;;;-0.33;100.00;101896.53;6004645;28;20122;-73
2023/03/03 06:51:34;;;;;;;35.38;8.88;;;;;;;-0.41;100.00;101882.91;6004213;28;20049;-73
2023/03/03 06:54:30;;;;;;;27.77;8.07;;;;;;;-0.35;100.00;101894.84;6003928;28;20039;-74
2023/03/03 06:57:27;;;;;;;28.90;7.53;;;;;;;-0.37;100.00;101889.72;6003886;28;20054;-72
2023/03/03 07:00:24;;;;;;;32.08;7.93;;;;;;;-0.29;100.00;101897.28;6004204;28;20066;-73
2023/03/03 07:03:40;;;;;;;27.75;8.35;;;;;;;-0.23;100.00;101905.78;6003330;28;20038;-73
2023/03/03 07:06:36;;;;;;;36.65;9.27;;;;;;;-0.34;100.00;101893.97;6003769;28;20045;-73
2023/03/03 07:09:31;;;;;;;24.55;7.53;;;;;;;-0.36;100.00;101901.00;6004214;28;20035;-73
2023/03/03 07:12:29;;;;;;;28.90;8.07;;;;;;;-0.35;100.00;101892.25;6004085;28;20039;-74
2023/03/03 07:15:29;;;;;;;26.58;7.07;;;;;;;-0.27;100.00;101901.53;6004175;28;20033;-73
2023/03/03 07:18:44;;;;;;;27.33;8.68;;;;;;;-0.14;100.00;101922.88;6002320;28;20410;-74
2023/03/03 07:21:40;;;;;;;23.02;6.82;;;;;;;-0.11;100.00;101907.97;6003812;28;20048;-73
2023/03/03 07:24:36;;;;;;;22.92;6.97;;;;;;;-0.09;100.00;101916.63;6002572;28;20043;-75
2023/03/03 07:27:31;;;;;;;26.52;8.13;;;;;;;-0.05;100.00;101907.78;6003815;28;20027;-74
2023/03/03 07:30:28;;;;;;;29.08;7.63;;;;;;;-0.06;100.00;101906.09;6002500;28;20039;-72
2023/03/03 07:33:49;;;;;;;25.90;7.28;;;;;;;0.13;100.00;101918.53;6002774;28;20037;-74
2023/03/03 07:36:44;;;;;;;36.25;8.75;;;;;;;-0.02;100.00;101909.44;6002941;28;20065;-73
2023/03/03 07:39:42;;;;;;;37.20;8.82;;;;;;;0.14;100.00;101922.81;6003302;28;20038;-73
2023/03/03 07:42:39;;;;;;;30.77;7.72;;;;;;;0.19;100.00;101919.16;6002759;28;20039;-74
2023/03/03 07:45:36;;;;;;;34.35;8.75;;;;;;;0.17;100.00;101927.94;6003285;28;20053;-73
2023/03/03 07:48:36;;;;;;;28.42;7.57;;;;;;;0.21;100.00;101933.03;6003192;28;20122;-72
2023/03/03 07:51:40;;;;;;;34.20;9.27;;;;;;;0.21;100.00;101940.84;6002696;28;20110;-71
2023/03/03 07:54:41;;;;;;;31.13;8.75;;;;;;;0.18;100.00;101940.09;6002704;28;20031;-71
2023/03/03 07:57:38;;;;;;;30.63;8.98;;;;;;;0.18;100.00;101940.94;6003107;28;20031;-72
2023/03/03 08:01:12;;;;;;;35.50;9.70;;;;;;;0.21;100.00;101946.06;6002794;28;20035;-73
2023/03/03 08:04:27;;;;;;;;;;;;;;;0.21;100.00;101950.41;6002528;28;20391;-71
2023/03/03 08:07:22;;;;;;;27.25;7.60;;;;;;;0.19;100.00;101952.22;6001953;28;20425;-74
2023/03/03 08:10:48;;;;;;;28.23;8.03;;;;;;;0.30;100.00;101950.13;6002008;28;20129;-71
2023/03/03 08:13:44;;;;;;;20.88;6.55;;;;;;;0.19;100.00;101939.19;5997844;28;20034;-71
2023/03/03 08:16:39;;;;;;;20.58;6.45;;;;;;;0.21;100.00;101937.38;6001714;28;20030;-70
2023/03/03 08:19:35;;;;;;;24.13;6.13;;;;;;;0.27;100.00;101950.22;6001170;28;20031;-72
2023/03/03 08:22:37;;;;;;;23.65;6.82;;;;;;;0.31;100.00;101949.19;6002037;28;20441;-73
2023/03/03 08:25:32;;;;;;;25.35;8.38;;;;;;;0.31;100.00;101957.03;6002121;28;20281;-72
2023/03/03 08:28:27;;;;;;;23.20;6.68;;;;;;;0.26;100.00;101928.50;6002493;28;20161;-73
2023/03/03 08:31:23;;;;;;;26.00;7.17;;;;;;;0.41;100.00;101947.97;6002366;28;20039;-73
2023/03/03 08:34:18;;;;;;;21.00;7.40;;;;;;;0.40;100.00;101947.16;6002007;28;20109;-72
2023/03/03 08:37:13;;;;;;;24.07;8.40;;;;;;;0.39;100.00;101947.19;6002539;28;20039;-73
2023/03/03 08:40:09;;;;;;;26.50;7.40;;;;;;;0.40;100.00;101951.53;5995220;28;20048;-71
2023/03/03 08:43:04;;;;;;;24.20;7.10;;;;;;;0.54;100.00;101963.19;5998647;28;20526;-73
2023/03/03 08:46:01;;;;;;;26.60;8.85;;;;;;;0.55;100.00;101958.81;5999556;28;20394;-72
2023/03/03 08:48:57;;;;;;;19.42;6.38;;;;;;;0.53;100.00;101964.09;5999465;28;20178;-72
2023/03/03 08:51:53;;;;;;;20.63;6.40;;;;;;;0.37;100.00;101947.25;5998023;28;20035;-72
2023/03/03 08:54:48;;;;;;;24.65;7.70;;;;;;;0.39;100.00;101944.59;5999442;28;20363;-72
2023/03/03 08:57:44;;;;;;;28.33;7.27;;;;;;;0.53;100.00;101965.84;5999158;28;20031;-72
2023/03/03 09:00:39;;;;;;;21.27;5.97;;;;;;;0.46;100.00;101952.16;5998077;28;20062;-73
2023/03/03 09:03:34;;;;;;;20.20;5.30;;;;;;;0.45;100.00;101952.22;5998467;28;20122;-73
2023/03/03 09:06:30;;;;;;;15.87;5.23;;;;;;;0.51;100.00;101965.06;5999242;28;20047;-72
2023/03/03 09:09:25;;;;;;;18.90;5.30;;;;;;;0.76;100.00;101955.47;5999429;28;20070;-72
2023/03/03 09:12:29;;;;;;;22.10;5.77;;;;;;;0.80;100.00;101957.06;5998914;28;20038;-74
2023/03/03 09:15:27;;;;;;;21.50;6.15;;;;;;;0.93;100.00;101968.78;5998635;28;20304;-73
2023/03/03 09:18:34;;;;;;;22.10;5.95;;;;;;;0.99;100.00;101960.75;5999058;28;20114;-73
2023/03/03 09:21:33;;;;;;;20.90;5.78;;;;;;;1.14;100.00;101954.97;5998770;28;20038;-72
2023/03/03 09:24:34;;;;;;;19.30;6.35;;;;;;;1.25;100.00;101944.13;6002681;28;20038;-72
2023/03/03 09:27:33;;;;;;;22.08;7.18;;;;;;;1.08;100.00;101942.16;6002757;28;20047;-74
2023/03/03 09:30:33;;;;;;;21.35;6.55;;;;;;;1.04;100.00;101963.19;6002946;28;20434;-74
2023/03/03 09:33:43;;;;;;;21.67;6.95;;;;;;;1.01;100.00;101964.16;6017401;28;20394;-74
2023/03/03 09:36:38;;;;;;;14.13;5.68;;;;;;;0.92;100.00;101940.13;5991046;28;20070;-74
2023/03/03 09:39:34;;;;;;;18.60;6.93;;;;;;;0.93;100.00;101937.47;6003261;28;20475;-74
2023/03/03 09:42:46;;;;;;;19.58;6.88;;;;;;;1.06;100.00;101956.16;6017322;28;20067;-74
2023/03/03 09:45:50;;;;;;;22.80;7.07;;;;;;;1.16;100.00;101963.63;6001700;28;20126;-73
2023/03/03 09:49:14;;;;;;;19.98;7.10;;;;;;;1.13;100.00;101950.66;6002511;28;20043;-73
2023/03/03 09:52:19;;;;;;;19.70;6.53;;;;;;;1.23;100.00;101963.38;5999596;28;20996;-74
2023/03/03 09:55:34;;;;;;;21.13;7.00;;;;;;;1.31;100.00;101956.09;6001626;28;20045;-72
2023/03/03 09:59:07;;;;;;;18.25;5.65;;;;;;;1.43;100.00;101963.50;6000551;28;20073;-74
2023/03/03 10:02:21;;;;;;;16.33;5.63;;;;;;;1.38;100.00;101965.44;6002231;28;20805;-74
2023/03/03 10:05:37;;;;;;;18.73;5.82;;;;;;;1.59;100.00;101969.84;6002056;28;20043;-72
2023/03/03 10:09:11;;;;;;;20.15;6.05;;;;;;;1.67;100.00;101973.03;6001657;28;20027;-73
2023/03/03 10:12:11;;;;;;;18.98;5.85;;;;;;;1.43;100.00;101968.72;6001744;28;20133;-73
2023/03/03 10:15:17;;;;;;;16.30;5.70;;;;;;;1.41;100.00;101976.63;6001982;28;20042;-72
2023/03/03 10:18:53;;;;;;;18.88;6.22;;;;;;;1.67;100.00;101980.88;6001505;28;20035;-73
2023/03/03 10:21:50;;;;;;;14.88;5.45;;;;;;;1.63;100.00;101961.00;5995066;28;20429;-74
2023/03/03 10:25:07;;;;;;;20.38;5.97;;;;;;;1.71;100.00;101964.16;6000976;28;20042;-72
2023/03/03 10:28:15;;;;;;;15.57;5.82;;;;;;;1.82;100.00;101982.91;6001607;28;20049;-72
2023/03/03 10:31:47;;;;;;;19.02;5.75;;;;;;;1.59;100.00;101982.91;6000833;28;20034;-73
2023/03/03 10:35:37;;;;;;;17.60;5.43;;;;;;;1.47;100.00;101980.78;5999437;28;20484;-73
2023/03/03 10:38:45;;;;;;;21.08;7.10;;;;;;;1.36;100.00;101972.47;5998321;28;20486;-74
2023/03/03 10:41:59;;;;;;;23.05;6.85;;;;;;;1.46;100.00;101982.53;5982598;28;20042;-72
2023/03/03 10:45:18;;;;;;;16.27;4.75;;;;;;;1.64;100.00;101967.91;6001459;28;20100;-73
2023/03/03 10:48:29;;;;;;;20.65;6.65;;;;;;;1.62;100.00;101974.97;6001770;28;20434;-73
2023/03/03 10:51:49;;;;;;;17.98;6.07;;;;;;;1.74;100.00;101980.56;6001323;28;20465;-73
2023/03/03 10:55:06;;;;;;;19.65;7.13;;;;;;;1.76;100.00;101967.44;6000189;28;20117;-72
2023/03/03 10:58:32;;;;;;;20.30;6.28;;;;;;;2.15;100.00;101978.94;5998687;28;20046;-73
2023/03/03 11:01:43;;;;;;;21.65;6.70;;;;;;;2.14;100.00;101973.78;6001390;28;20043;-73
2023/03/03 11:05:14;;;;;;;20.00;5.93;;;;;;;2.24;100.00;101972.50;5999286;28;20031;-74
2023/03/03 11:08:16;;;;;;;16.95;5.90;;;;;;;2.40;98.10;101970.94;5997739;28;20121;-73
2023/03/03 11:11:23;;;;;;;18.80;6.07;;;;;;;2.62;97.96;101970.91;6006726;28;20493;-74
2023/03/03 11:14:26;;;;;;;22.63;7.00;;;;;;;2.58;97.43;101964.13;6014504;28;20035;-73
2023/03/03 11:18:02;;;;;;;14.25;5.47;;;;;;;2.49;96.89;101961.88;6000411;28;20500;-74
2023/03/03 11:21:09;;;;;;;19.52;6.63;;;;;;;2.44;97.19;101969.06;6006912;28;20056;-73
2023/03/03 11:24:35;;;;;;;17.48;5.78;;;;;;;2.48;96.46;101950.53;5993241;28;20046;-73
2023/03/03 11:27:38;;;;;;;15.35;5.90;;;;;;;2.84;95.46;101950.75;5999556;28;20122;-72
2023/03/03 11:30:52;;;;;;;20.35;6.80;;;;;;;2.77;95.29;101952.78;5999082;28;20159;-73
2023/03/03 11:34:01;;;;;;;22.52;7.45;;;;;;;2.79;96.05;101958.81;6000041;28;20043;-74
2023/03/03 11:37:09;;;;;;;20.23;6.63;;;;;;;2.64;95.92;101948.13;5999740;28;20363;-72
2023/03/03 11:40:20;;;;;;;18.27;6.50;;;;;;;2.67;96.58;101953.22;6001248;28;20031;-73
2023/03/03 11:43:29;;;;;;;17.48;6.25;;;;;;;2.78;94.62;101943.16;5999933;28;20399;-73
2023/03/03 11:46:26;;;;;;;18.45;6.90;;;;;;;2.87;95.02;101930.53;5998062;28;20038;-73
2023/03/03 11:49:28;;;;;;;23.50;7.72;;;;;;;2.83;94.00;101920.22;5999184;28;20022;-72
2023/03/03 11:52:36;;;;;;;22.73;6.97;;;;;;;2.88;93.60;101936.63;5997897;28;20054;-73
2023/03/03 11:55:40;;;;;;;21.58;6.90;;;;;;;3.05;93.59;101913.13;5999383;28;20057;-72
2023/03/03 11:58:44;;;;;;;19.20;7.00;;;;;;;3.17;91.78;101915.22;5983293;28;20141;-72
2023/03/03 12:01:52;;;;;;;20.38;6.90;;;;;;;3.18;90.78;101919.50;5999435;28;20054;-74
2023/03/03 12:05:24;;;;;;;24.05;7.63;;;;;;;3.26;91.37;101916.56;5995995;28;20034;-73
2023/03/03 12:08:26;;;;;;;22.15;8.73;;;;;;;3.41;91.19;101919.34;6000213;28;20034;-72
2023/03/03 12:11:45;;;;;;;22.60;8.68;;;;;;;3.48;91.13;101915.50;5995461;28;20027;-73
2023/03/03 12:15:16;;;;;;;24.42;8.85;;;;;;;3.50;91.85;101894.47;5999817;28;20544;-73
2023/03/03 12:18:24;;;;;;;29.02;9.52;;;;;;;3.41;90.61;101911.47;5995219;28;20027;-73
2023/03/03 12:21:28;;;;;;;30.33;10.27;;;;;;;3.32;91.54;101898.78;6000154;28;20030;-73
2023/03/03 12:24:43;;;;;;;29.17;9.60;;;;;;;3.60;91.43;101898.34;6000825;28;20038;-73
2023/03/03 12:27:49;;;;;;;24.25;9.25;;;;;;;3.73;91.13;101895.97;5984742;28;20430;-73
2023/03/03 12:31:00;;;;;;;26.88;8.13;;;;;;;3.69;88.67;101895.28;6016826;28;20121;-73
2023/03/03 12:33:59;;;;;;;26.95;9.60;;;;;;;3.80;89.00;101882.50;6015317;28;20110;-73
2023/03/03 12:37:10;;;;;;;27.95;9.68;;;;;;;4.11;86.84;101866.94;5999738;28;20402;-73
2023/03/03 12:40:16;;;;;;;24.48;9.48;;;;;;;4.24;87.07;101879.47;5989997;28;20097;-73
2023/03/03 12:43:27;;;;;;;26.65;8.45;;;;;;;4.05;86.23;101877.75;6000525;28;20039;-73
2023/03/03 12:46:38;;;;;;;31.08;9.57;;;;;;;3.79;86.82;101875.56;6000475;28;20490;-72
2023/03/03 12:50:00;;;;;;;25.08;9.45;;;;;;;3.64;87.72;101872.84;6002364;28;20027;-73
2023/03/03 12:53:11;;;;;;;33.17;11.32;;;;;;;3.55;90.37;101861.00;5984665;28;20398;-73
2023/03/03 12:56:08;;;;;;;32.00;10.20;;;;;;;3.49;89.94;101862.13;6002611;28;20085;-72
2023/03/03 12:59:12;;;;;;;32.60;10.38;;;;;;;3.74;89.83;101876.69;6006473;28;20125;-73
2023/03/03 13:02:29;;;;;;;31.67;10.85;;;;;;;3.74;89.70;101866.22;6005020;28;20038;-73
2023/03/03 13:05:51;;;;;;;33.78;11.68;;;;;;;3.64;89.23;101859.72;6005865;28;20154;-73
2023/03/03 13:09:19;;;;;;;36.00;11.82;;;;;;;3.71;89.53;101872.47;6006770;28;20058;-73
2023/03/03 13:12:40;;;;;;;42.10;13.00;;;;;;;3.64;89.66;101875.44;6002711;28;20050;-73
2023/03/03 13:15:57;;;;;;;32.83;11.27;;;;;;;3.74;88.34;101856.56;6005428;28;20491;-73
2023/03/03 13:18:58;;;;;;;36.83;11.10;;;;;;;3.84;88.41;101859.59;6005352;28;20116;-74
2023/03/03 13:22:01;;;;;;;35.28;12.23;;;;;;;3.82;88.56;101854.41;6004632;28;20030;-73
2023/03/03 13:25:08;;;;;;;36.65;14.02;;;;;;;3.81;88.60;101838.75;6005134;28;20031;-73
2023/03/03 13:28:17;;;;;;;39.47;12.50;;;;;;;3.77;88.80;101852.94;6021387;28;20114;-74
2023/03/03 13:31:16;;;;;;;35.35;12.10;;;;;;;3.92;89.55;101844.31;6005044;28;20034;-74
2023/03/03 13:34:24;;;;;;;40.30;13.35;;;;;;;3.99;87.67;101835.22;5988403;28;20057;-74
2023/03/03 13:37:30;;;;;;;40.08;14.35;;;;;;;4.15;86.63;101828.28;6004762;28;20465;-74
2023/03/03 13:40:29;;;;;;;37.97;13.88;;;;;;;4.63;85.42;101841.50;6006346;28;20114;-73
2023/03/03 13:44:04;;;;;;;37.03;13.32;;;;;;;4.79;83.59;101839.75;6005505;28;20151;-73
2023/03/03 13:47:18;;;;;;;44.33;14.55;;;;;;;4.86;82.63;101835.03;6003672;28;20047;-73
2023/03/03 13:50:32;;;;;;;41.40;15.65;;;;;;;4.62;83.06;101824.03;6005804;28;20038;-73
2023/03/03 13:53:36;;;;;;;;;;;;;;;4.74;83.68;101823.41;6005633;28;20057;-72